sensor_id;sensor_type;location;lat;lon;timestamp;temperature;humidity
63976;DHT22;50167;47.958;21.780;2023-02-21T00:02:43;9.76;67.12
63976;DHT22;50167;47.958;21.780;2023-02-21T00:05:28;11.25;63.44
63976;DHT22;50167;47.958;21.780;2023-02-21T00:08:13;11.90;58.70
63976;DHT22;50167;47.958;21.780;2023-02-21T00:10:57;11.47;57.90
63976;DHT22;50167;47.958;21.780;2023-02-21T00:13:42;10.25;61.03
63976;DHT22;50167;47.958;21.780;2023-02-21T00:16:27;9.34;64.09
63976;DHT22;50167;47.958;21.780;2023-02-21T00:19:11;10.29;65.17
63976;DHT22;50167;47.958;21.780;2023-02-21T00:21:56;11.68;61.13
63976;DHT22;50167;47.958;21.780;2023-02-21T00:24:40;11.92;57.23
63976;DHT22;50167;47.958;21.780;2023-02-21T00:27:25;10.82;59.48
63976;DHT22;50167;47.958;21.780;2023-02-21T00:30:11;9.69;63.24
63976;DHT22;50167;47.958;21.780;2023-02-21T00:32:56;10.31;64.75
63976;DHT22;50167;47.958;21.780;2023-02-21T00:35:41;11.27;60.07
63976;DHT22;50167;47.958;21.780;2023-02-21T00:38:25;11.90;57.99
63976;DHT22;50167;47.958;21.780;2023-02-21T00:41:10;10.94;59.34
63976;DHT22;50167;47.958;21.780;2023-02-21T00:43:54;9.89;62.51
63976;DHT22;50167;47.958;21.780;2023-02-21T00:46:39;10.24;62.96
63976;DHT22;50167;47.958;21.780;2023-02-21T00:49:24;11.11;60.25
63976;DHT22;50167;47.958;21.780;2023-02-21T00:52:09;11.75;57.79
63976;DHT22;50167;47.958;21.780;2023-02-21T00:54:53;10.56;60.38
63976;DHT22;50167;47.958;21.780;2023-02-21T00:57:39;9.63;62.26
63976;DHT22;50167;47.958;21.780;2023-02-21T01:00:24;10.15;63.16
63976;DHT22;50167;47.958;21.780;2023-02-21T01:03:10;11.42;59.93
63976;DHT22;50167;47.958;21.780;2023-02-21T01:05:55;11.42;57.99
63976;DHT22;50167;47.958;21.780;2023-02-21T01:08:44;10.15;61.27
63976;DHT22;50167;47.958;21.780;2023-02-21T01:11:30;9.63;63.90
63976;DHT22;50167;47.958;21.780;2023-02-21T01:14:15;10.83;61.08
63976;DHT22;50167;47.958;21.780;2023-02-21T01:17:00;11.68;58.70
63976;DHT22;50167;47.958;21.780;2023-02-21T01:19:45;11.18;58.17
63976;DHT22;50167;47.958;21.780;2023-02-21T01:22:30;10.04;61.18
63976;DHT22;50167;47.958;21.780;2023-02-21T01:25:15;9.22;63.97
63976;DHT22;50167;47.958;21.780;2023-02-21T01:28:00;10.38;62.82
63976;DHT22;50167;47.958;21.780;2023-02-21T01:30:46;11.70;58.86
63976;DHT22;50167;47.958;21.780;2023-02-21T01:33:39;11.45;56.96
63976;DHT22;50167;47.958;21.780;2023-02-21T01:36:25;10.01;60.97
63976;DHT22;50167;47.958;21.780;2023-02-21T01:39:10;9.25;63.97
63976;DHT22;50167;47.958;21.780;2023-02-21T01:41:55;10.38;61.71
63976;DHT22;50167;47.958;21.780;2023-02-21T01:44:46;11.58;59.29
63976;DHT22;50167;47.958;21.780;2023-02-21T01:47:31;11.11;57.40
63976;DHT22;50167;47.958;21.780;2023-02-21T01:50:26;9.86;61.34
63976;DHT22;50167;47.958;21.780;2023-02-21T01:53:18;9.24;63.98
63976;DHT22;50167;47.958;21.780;2023-02-21T01:56:04;10.56;61.75
63976;DHT22;50167;47.958;21.780;2023-02-21T01:58:52;11.28;57.82
63976;DHT22;50167;47.958;21.780;2023-02-21T02:02:07;10.29;59.90
63976;DHT22;50167;47.958;21.780;2023-02-21T02:04:52;9.22;63.32
63976;DHT22;50167;47.958;21.780;2023-02-21T02:07:37;10.29;61.33
63976;DHT22;50167;47.958;21.780;2023-02-21T02:10:22;11.06;58.58
63976;DHT22;50167;47.958;21.780;2023-02-21T02:13:34;10.21;60.08
63976;DHT22;50167;47.958;21.780;2023-02-21T02:36:38;10.92;59.47
63976;DHT22;50167;47.958;21.780;2023-02-21T02:39:02;10.90;57.26
63976;DHT22;50167;47.958;21.780;2023-02-21T02:41:48;9.80;59.60
63976;DHT22;50167;47.958;21.780;2023-02-21T02:46:44;9.38;64.59
63976;DHT22;50167;47.958;21.780;2023-02-21T02:49:23;10.96;59.41
63976;DHT22;50167;47.958;21.780;2023-02-21T02:51:54;10.92;57.00
63976;DHT22;50167;47.958;21.780;2023-02-21T02:54:20;9.97;58.49
63976;DHT22;50167;47.958;21.780;2023-02-21T02:56:47;9.08;60.47
63976;DHT22;50167;47.958;21.780;2023-02-21T02:59:22;8.62;63.70
63976;DHT22;50167;47.958;21.780;2023-02-21T03:13:40;8.51;62.84
63976;DHT22;50167;47.958;21.780;2023-02-21T03:18:54;10.99;58.64
63976;DHT22;50167;47.958;21.780;2023-02-21T03:21:40;10.96;55.88
63976;DHT22;50167;47.958;21.780;2023-02-21T03:24:05;9.79;58.87
63976;DHT22;50167;47.958;21.780;2023-02-21T03:26:36;9.01;61.28
63976;DHT22;50167;47.958;21.780;2023-02-21T03:29:03;8.43;64.19
63976;DHT22;50167;47.958;21.780;2023-02-21T03:31:35;9.38;63.51
63976;DHT22;50167;47.958;21.780;2023-02-21T03:34:02;10.65;59.72
63976;DHT22;50167;47.958;21.780;2023-02-21T03:36:29;10.82;56.93
63976;DHT22;50167;47.958;21.780;2023-02-21T03:38:55;9.89;58.90
63976;DHT22;50167;47.958;21.780;2023-02-21T03:41:22;9.06;61.75
63976;DHT22;50167;47.958;21.780;2023-02-21T03:43:48;8.41;62.43
63976;DHT22;50167;47.958;21.780;2023-02-21T03:46:14;9.03;64.57
63976;DHT22;50167;47.958;21.780;2023-02-21T03:48:40;10.42;61.60
63976;DHT22;50167;47.958;21.780;2023-02-21T03:51:06;11.22;58.14
63976;DHT22;50167;47.958;21.780;2023-02-21T03:53:32;10.69;56.35
63976;DHT22;50167;47.958;21.780;2023-02-21T03:55:59;9.69;58.55
63976;DHT22;50167;47.958;21.780;2023-02-21T03:58:25;8.91;60.26
63976;DHT22;50167;47.958;21.780;2023-02-21T04:00:51;8.31;62.94
63976;DHT22;50167;47.958;21.780;2023-02-21T04:03:18;9.00;66.65
63976;DHT22;50167;47.958;21.780;2023-02-21T04:05:45;10.45;61.66
63976;DHT22;50167;47.958;21.780;2023-02-21T04:08:11;11.31;59.26
63976;DHT22;50167;47.958;21.780;2023-02-21T04:10:37;11.13;55.09
63976;DHT22;50167;47.958;21.780;2023-02-21T04:13:04;10.06;56.33
63976;DHT22;50167;47.958;21.780;2023-02-21T04:15:32;9.17;58.55
63976;DHT22;50167;47.958;21.780;2023-02-21T04:17:58;8.52;60.24
63976;DHT22;50167;47.958;21.780;2023-02-21T04:20:24;8.03;62.61
63976;DHT22;50167;47.958;21.780;2023-02-21T04:22:50;8.63;66.41
63976;DHT22;50167;47.958;21.780;2023-02-21T04:25:17;10.13;63.99
63976;DHT22;50167;47.958;21.780;2023-02-21T04:27:43;11.11;60.31
63976;DHT22;50167;47.958;21.780;2023-02-21T04:30:10;11.06;56.09
63976;DHT22;50167;47.958;21.780;2023-02-21T04:32:37;10.00;56.04
63976;DHT22;50167;47.958;21.780;2023-02-21T04:35:04;9.10;57.74
63976;DHT22;50167;47.958;21.780;2023-02-21T04:37:30;8.36;60.77
63976;DHT22;50167;47.958;21.780;2023-02-21T04:39:56;7.74;62.98
63976;DHT22;50167;47.958;21.780;2023-02-21T04:42:22;8.25;67.83
63976;DHT22;50167;47.958;21.780;2023-02-21T04:44:49;9.66;64.83
63976;DHT22;50167;47.958;21.780;2023-02-21T04:47:15;10.55;61.06
63976;DHT22;50167;47.958;21.780;2023-02-21T04:49:41;11.00;59.14
63976;DHT22;50167;47.958;21.780;2023-02-21T04:52:07;10.63;55.86
63976;DHT22;50167;47.958;21.780;2023-02-21T04:54:33;9.53;56.51
63976;DHT22;50167;47.958;21.780;2023-02-21T04:56:59;8.60;58.24
63976;DHT22;50167;47.958;21.780;2023-02-21T04:59:26;7.98;59.66
63976;DHT22;50167;47.958;21.780;2023-02-21T05:01:52;7.50;60.91
63976;DHT22;50167;47.958;21.780;2023-02-21T05:04:19;7.08;62.39
63976;DHT22;50167;47.958;21.780;2023-02-21T05:06:45;7.80;68.32
63976;DHT22;50167;47.958;21.780;2023-02-21T05:09:11;9.38;66.97
63976;DHT22;50167;47.958;21.780;2023-02-21T05:11:37;10.36;62.90
63976;DHT22;50167;47.958;21.780;2023-02-21T05:14:03;10.94;60.09
63976;DHT22;50167;47.958;21.780;2023-02-21T05:16:29;10.55;56.42
63976;DHT22;50167;47.958;21.780;2023-02-21T05:18:55;9.45;56.66
63976;DHT22;50167;47.958;21.780;2023-02-21T05:21:21;8.59;58.70
63976;DHT22;50167;47.958;21.780;2023-02-21T05:23:48;7.90;59.75
63976;DHT22;50167;47.958;21.780;2023-02-21T05:26:25;7.38;61.48
63976;DHT22;50167;47.958;21.780;2023-02-21T05:28:53;7.89;66.80
63976;DHT22;50167;47.958;21.780;2023-02-21T05:31:19;9.34;66.16
63976;DHT22;50167;47.958;21.780;2023-02-21T05:33:46;10.29;62.10
63976;DHT22;50167;47.958;21.780;2023-02-21T05:36:12;10.94;59.82
63976;DHT22;50167;47.958;21.780;2023-02-21T05:38:48;10.72;55.60
63976;DHT22;50167;47.958;21.780;2023-02-21T05:41:16;9.59;55.98
63976;DHT22;50167;47.958;21.780;2023-02-21T05:43:47;8.72;57.53
63976;DHT22;50167;47.958;21.780;2023-02-21T05:48:56;7.53;62.11
63976;DHT22;50167;47.958;21.780;2023-02-21T05:51:23;8.10;67.08
63976;DHT22;50167;47.958;21.780;2023-02-21T05:53:49;9.67;64.55
63976;DHT22;50167;47.958;21.780;2023-02-21T05:56:17;10.71;59.50
63976;DHT22;50167;47.958;21.780;2023-02-21T05:58:43;10.59;56.21
63976;DHT22;50167;47.958;21.780;2023-02-21T06:01:11;9.58;58.12
63976;DHT22;50167;47.958;21.780;2023-02-21T06:03:37;8.83;59.70
63976;DHT22;50167;47.958;21.780;2023-02-21T06:06:05;8.32;61.21
63976;DHT22;50167;47.958;21.780;2023-02-21T06:08:31;8.13;63.86
63976;DHT22;50167;47.958;21.780;2023-02-21T06:10:57;9.52;65.34
63976;DHT22;50167;47.958;21.780;2023-02-21T06:13:23;10.94;60.02
63976;DHT22;50167;47.958;21.780;2023-02-21T06:15:49;11.15;55.52
63976;DHT22;50167;47.958;21.780;2023-02-21T06:18:16;10.34;56.89
63976;DHT22;50167;47.958;21.780;2023-02-21T06:20:43;9.55;58.78
63976;DHT22;50167;47.958;21.780;2023-02-21T06:23:09;8.97;59.86
63976;DHT22;50167;47.958;21.780;2023-02-21T06:25:37;8.55;62.12
63976;DHT22;50167;47.958;21.780;2023-02-21T06:28:03;8.25;61.72
63976;DHT22;50167;47.958;21.780;2023-02-21T06:30:30;9.04;65.44
63976;DHT22;50167;47.958;21.780;2023-02-21T06:32:56;10.65;61.95
63976;DHT22;50167;47.958;21.780;2023-02-21T06:35:22;11.92;57.31
63976;DHT22;50167;47.958;21.780;2023-02-21T06:37:48;11.85;53.77
63976;DHT22;50167;47.958;21.780;2023-02-21T06:40:14;10.90;55.16
63976;DHT22;50167;47.958;21.780;2023-02-21T06:42:40;10.10;57.30
63976;DHT22;50167;47.958;21.780;2023-02-21T06:45:07;9.58;58.63
63976;DHT22;50167;47.958;21.780;2023-02-21T06:47:33;9.21;60.97
63976;DHT22;50167;47.958;21.780;2023-02-21T06:49:59;8.91;60.78
63976;DHT22;50167;47.958;21.780;2023-02-21T06:52:26;8.70;61.83
63976;DHT22;50167;47.958;21.780;2023-02-21T06:54:52;8.99;64.59
63976;DHT22;50167;47.958;21.780;2023-02-21T06:57:18;10.61;62.14
63976;DHT22;50167;47.958;21.780;2023-02-21T06:59:44;11.86;59.03
63976;DHT22;50167;47.958;21.780;2023-02-21T07:02:17;12.07;55.36
63976;DHT22;50167;47.958;21.780;2023-02-21T07:04:45;11.28;56.56
63976;DHT22;50167;47.958;21.780;2023-02-21T07:07:12;10.61;58.58
63976;DHT22;50167;47.958;21.780;2023-02-21T07:09:44;10.15;60.40
63976;DHT22;50167;47.958;21.780;2023-02-21T07:12:10;9.83;60.65
63976;DHT22;50167;47.958;21.780;2023-02-21T07:14:37;9.65;60.69
63976;DHT22;50167;47.958;21.780;2023-02-21T07:21:02;10.84;62.42
63976;DHT22;50167;47.958;21.780;2023-02-21T07:23:30;12.37;58.89
63976;DHT22;50167;47.958;21.780;2023-02-21T07:25:56;12.51;54.26
63976;DHT22;50167;47.958;21.780;2023-02-21T07:28:22;11.76;55.48
63976;DHT22;50167;47.958;21.780;2023-02-21T07:30:48;11.15;57.55
63976;DHT22;50167;47.958;21.780;2023-02-21T07:33:29;10.82;58.80
63976;DHT22;50167;47.958;21.780;2023-02-21T07:35:55;10.53;60.03
63976;DHT22;50167;47.958;21.780;2023-02-21T07:38:25;10.36;60.21
63976;DHT22;50167;47.958;21.780;2023-02-21T07:40:58;10.32;62.04
63976;DHT22;50167;47.958;21.780;2023-02-21T07:43:26;11.68;61.17
63976;DHT22;50167;47.958;21.780;2023-02-21T07:45:52;13.12;56.80
63976;DHT22;50167;47.958;21.780;2023-02-21T07:48:19;13.35;53.88
63976;DHT22;50167;47.958;21.780;2023-02-21T07:50:45;12.75;55.49
63976;DHT22;50167;47.958;21.780;2023-02-21T07:53:13;12.30;56.18
63976;DHT22;50167;47.958;21.780;2023-02-21T07:55:39;12.00;58.10
63976;DHT22;50167;47.958;21.780;2023-02-21T07:58:06;11.79;59.18
63976;DHT22;50167;47.958;21.780;2023-02-21T08:00:33;11.66;58.70
63976;DHT22;50167;47.958;21.780;2023-02-21T08:02:59;11.58;59.71
63976;DHT22;50167;47.958;21.780;2023-02-21T08:05:25;11.54;58.68
63976;DHT22;50167;47.958;21.780;2023-02-21T08:07:52;11.54;60.40
63976;DHT22;50167;47.958;21.780;2023-02-21T08:10:24;11.54;60.36
63976;DHT22;50167;47.958;21.780;2023-02-21T08:12:51;11.59;59.84
63976;DHT22;50167;47.958;21.780;2023-02-21T08:15:17;11.62;60.17
63976;DHT22;50167;47.958;21.780;2023-02-21T08:17:49;11.70;59.79
63976;DHT22;50167;47.958;21.780;2023-02-21T08:20:15;11.78;60.12
63976;DHT22;50167;47.958;21.780;2023-02-21T08:22:42;11.82;59.95
63976;DHT22;50167;47.958;21.780;2023-02-21T08:25:12;11.93;59.72
63976;DHT22;50167;47.958;21.780;2023-02-21T08:27:41;12.04;58.53
63976;DHT22;50167;47.958;21.780;2023-02-21T08:30:11;12.10;59.31
63976;DHT22;50167;47.958;21.780;2023-02-21T08:32:39;12.20;58.68
63976;DHT22;50167;47.958;21.780;2023-02-21T08:35:05;12.26;58.92
63976;DHT22;50167;47.958;21.780;2023-02-21T08:37:33;12.33;58.76
63976;DHT22;50167;47.958;21.780;2023-02-21T08:40:03;12.41;57.95
63976;DHT22;50167;47.958;21.780;2023-02-21T08:42:29;12.54;58.99
63976;DHT22;50167;47.958;21.780;2023-02-21T08:44:56;12.66;58.74
63976;DHT22;50167;47.958;21.780;2023-02-21T08:47:22;12.76;58.25
63976;DHT22;50167;47.958;21.780;2023-02-21T08:49:48;12.89;57.34
63976;DHT22;50167;47.958;21.780;2023-02-21T08:52:16;12.96;56.34
63976;DHT22;50167;47.958;21.780;2023-02-21T08:54:43;13.04;55.58
63976;DHT22;50167;47.958;21.780;2023-02-21T08:57:10;13.06;56.32
63976;DHT22;50167;47.958;21.780;2023-02-21T08:59:42;13.19;56.81
63976;DHT22;50167;47.958;21.780;2023-02-21T09:02:22;13.33;56.57
63976;DHT22;50167;47.958;21.780;2023-02-21T09:04:53;13.45;55.39
63976;DHT22;50167;47.958;21.780;2023-02-21T09:07:21;13.48;55.10
63976;DHT22;50167;47.958;21.780;2023-02-21T09:09:48;13.55;54.51
63976;DHT22;50167;47.958;21.780;2023-02-21T09:12:20;13.64;54.05
63976;DHT22;50167;47.958;21.780;2023-02-21T09:14:46;13.65;54.84
63976;DHT22;50167;47.958;21.780;2023-02-21T09:17:13;13.72;54.75
63976;DHT22;50167;47.958;21.780;2023-02-21T09:19:39;13.78;54.49
63976;DHT22;50167;47.958;21.780;2023-02-21T09:22:07;13.91;55.40
63976;DHT22;50167;47.958;21.780;2023-02-21T09:24:36;14.15;54.60
63976;DHT22;50167;47.958;21.780;2023-02-21T09:27:04;14.54;54.40
63976;DHT22;50167;47.958;21.780;2023-02-21T09:29:35;15.30;51.59
63976;DHT22;50167;47.958;21.780;2023-02-21T09:32:02;16.18;50.73
63976;DHT22;50167;47.958;21.780;2023-02-21T09:34:29;17.11;47.35
63976;DHT22;50167;47.958;21.780;2023-02-21T09:36:55;17.98;44.84
63976;DHT22;50167;47.958;21.780;2023-02-21T09:39:22;18.87;42.96
63976;DHT22;50167;47.958;21.780;2023-02-21T09:41:49;19.65;41.68
63976;DHT22;50167;47.958;21.780;2023-02-21T09:44:25;20.13;39.86
63976;DHT22;50167;47.958;21.780;2023-02-21T09:47:02;20.45;39.50
63976;DHT22;50167;47.958;21.780;2023-02-21T09:49:39;20.84;38.31
63976;DHT22;50167;47.958;21.780;2023-02-21T09:52:17;21.20;37.96
63976;DHT22;50167;47.958;21.780;2023-02-21T09:54:43;21.14;37.93
63976;DHT22;50167;47.958;21.780;2023-02-21T09:57:13;20.78;38.92
63976;DHT22;50167;47.958;21.780;2023-02-21T09:59:40;20.23;39.40
63976;DHT22;50167;47.958;21.780;2023-02-21T10:02:48;19.46;40.73
63976;DHT22;50167;47.958;21.780;2023-02-21T10:05:25;18.70;41.37
63976;DHT22;50167;47.958;21.780;2023-02-21T10:19:18;18.69;43.82
63976;DHT22;50167;47.958;21.780;2023-02-21T10:21:47;19.81;40.38
63976;DHT22;50167;47.958;21.780;2023-02-21T10:24:19;20.53;39.62
63976;DHT22;50167;47.958;21.780;2023-02-21T10:27:05;21.40;38.17
63976;DHT22;50167;47.958;21.780;2023-02-21T10:29:46;22.17;35.39
63976;DHT22;50167;47.958;21.780;2023-02-21T10:32:13;22.65;33.81
63976;DHT22;50167;47.958;21.780;2023-02-21T10:34:39;22.83;35.00
63976;DHT22;50167;47.958;21.780;2023-02-21T10:42:42;23.44;32.92
63976;DHT22;50167;47.958;21.780;2023-02-21T10:45:11;23.65;32.77
63976;DHT22;50167;47.958;21.780;2023-02-21T10:48:00;24.06;31.91
63976;DHT22;50167;47.958;21.780;2023-02-21T10:53:28;25.19;31.26
63976;DHT22;50167;47.958;21.780;2023-02-21T10:59:01;25.56;30.65
63976;DHT22;50167;47.958;21.780;2023-02-21T11:01:42;25.55;29.54
63976;DHT22;50167;47.958;21.780;2023-02-21T11:04:30;25.62;29.76
63976;DHT22;50167;47.958;21.780;2023-02-21T11:12:23;25.43;29.81
63976;DHT22;50167;47.958;21.780;2023-02-21T11:17:27;25.49;29.24
63976;DHT22;50167;47.958;21.780;2023-02-21T11:20:01;25.50;28.99
63976;DHT22;50167;47.958;21.780;2023-02-21T11:25:19;25.79;28.97
63976;DHT22;50167;47.958;21.780;2023-02-21T11:27:44;25.77;29.68
63976;DHT22;50167;47.958;21.780;2023-02-21T11:30:18;26.17;28.83
63976;DHT22;50167;47.958;21.780;2023-02-21T11:32:55;26.34;28.58
63976;DHT22;50167;47.958;21.780;2023-02-21T11:35:28;26.35;27.59
63976;DHT22;50167;47.958;21.780;2023-02-21T11:38:00;26.00;28.04
63976;DHT22;50167;47.958;21.780;2023-02-21T11:40:43;25.75;28.32
63976;DHT22;50167;47.958;21.780;2023-02-21T11:43:28;25.67;29.17
63976;DHT22;50167;47.958;21.780;2023-02-21T11:46:41;25.83;29.20
63976;DHT22;50167;47.958;21.780;2023-02-21T11:49:35;26.08;28.74
63976;DHT22;50167;47.958;21.780;2023-02-21T11:52:13;25.88;29.73
63976;DHT22;50167;47.958;21.780;2023-02-21T11:54:40;25.81;29.09
63976;DHT22;50167;47.958;21.780;2023-02-21T12:09:04;25.63;29.61
63976;DHT22;50167;47.958;21.780;2023-02-21T12:11:50;25.84;28.80
63976;DHT22;50167;47.958;21.780;2023-02-21T12:26:32;23.99;32.50
63976;DHT22;50167;47.958;21.780;2023-02-21T12:29:24;24.84;30.83
63976;DHT22;50167;47.958;21.780;2023-02-21T12:32:04;25.49;28.89
63976;DHT22;50167;47.958;21.780;2023-02-21T12:40:02;25.88;28.58
63976;DHT22;50167;47.958;21.780;2023-02-21T12:48:49;25.79;29.11
63976;DHT22;50167;47.958;21.780;2023-02-21T12:51:21;24.73;29.84
63976;DHT22;50167;47.958;21.780;2023-02-21T12:54:03;23.54;31.40
63976;DHT22;50167;47.958;21.780;2023-02-21T12:56:52;22.58;33.28
63976;DHT22;50167;47.958;21.780;2023-02-21T12:59:23;21.96;34.45
63976;DHT22;50167;47.958;21.780;2023-02-21T13:01:57;21.70;34.71
63976;DHT22;50167;47.958;21.780;2023-02-21T13:07:56;20.46;36.90
63976;DHT22;50167;47.958;21.780;2023-02-21T13:10:51;20.05;37.85
63976;DHT22;50167;47.958;21.780;2023-02-21T13:13:25;19.45;38.83
63976;DHT22;50167;47.958;21.780;2023-02-21T13:15:53;19.08;39.14
63976;DHT22;50167;47.958;21.780;2023-02-21T13:28:57;20.27;38.81
63976;DHT22;50167;47.958;21.780;2023-02-21T13:31:28;21.51;36.38
63976;DHT22;50167;47.958;21.780;2023-02-21T13:33:59;22.47;34.41
63976;DHT22;50167;47.958;21.780;2023-02-21T13:39:16;23.05;32.61
63976;DHT22;50167;47.958;21.780;2023-02-21T13:42:04;23.71;31.97
63976;DHT22;50167;47.958;21.780;2023-02-21T13:44:36;24.27;30.42
63976;DHT22;50167;47.958;21.780;2023-02-21T13:47:15;24.61;30.55
63976;DHT22;50167;47.958;21.780;2023-02-21T13:49:56;24.82;29.52
63976;DHT22;50167;47.958;21.780;2023-02-21T13:52:51;24.71;29.48
63976;DHT22;50167;47.958;21.780;2023-02-21T13:55:22;23.92;30.19
63976;DHT22;50167;47.958;21.780;2023-02-21T14:07:59;20.49;35.60
63976;DHT22;50167;47.958;21.780;2023-02-21T14:10:33;20.01;36.15
63976;DHT22;50167;47.958;21.780;2023-02-21T14:13:07;19.65;36.57
63976;DHT22;50167;47.958;21.780;2023-02-21T14:15:41;19.22;37.11
63976;DHT22;50167;47.958;21.780;2023-02-21T14:18:23;18.88;37.67
63976;DHT22;50167;47.958;21.780;2023-02-21T14:20:51;18.55;38.49
63976;DHT22;50167;47.958;21.780;2023-02-21T14:23:23;18.26;39.12
63976;DHT22;50167;47.958;21.780;2023-02-21T14:26:01;17.98;40.35
63976;DHT22;50167;47.958;21.780;2023-02-21T14:29:00;17.69;40.87
63976;DHT22;50167;47.958;21.780;2023-02-21T14:40:11;16.98;42.03
63976;DHT22;50167;47.958;21.780;2023-02-21T14:43:19;16.90;42.86
63976;DHT22;50167;47.958;21.780;2023-02-21T15:02:15;16.43;44.54
63976;DHT22;50167;47.958;21.780;2023-02-21T15:05:13;16.32;44.47
63976;DHT22;50167;47.958;21.780;2023-02-21T15:08:01;16.25;44.41
63976;DHT22;50167;47.958;21.780;2023-02-21T15:10:38;16.18;44.59
63976;DHT22;50167;47.958;21.780;2023-02-21T15:13:03;16.16;44.52
63976;DHT22;50167;47.958;21.780;2023-02-21T15:15:40;16.09;44.86
63976;DHT22;50167;47.958;21.780;2023-02-21T15:18:22;16.15;45.00
63976;DHT22;50167;47.958;21.780;2023-02-21T15:20:42;16.20;45.28
63976;DHT22;50167;47.958;21.780;2023-02-21T15:23:15;16.25;45.13
63976;DHT22;50167;47.958;21.780;2023-02-21T15:25:53;16.26;45.25
63976;DHT22;50167;47.958;21.780;2023-02-21T15:28:26;16.20;45.45
63976;DHT22;50167;47.958;21.780;2023-02-21T15:31:07;16.12;45.57
63976;DHT22;50167;47.958;21.780;2023-02-21T15:33:39;16.01;45.71
63976;DHT22;50167;47.958;21.780;2023-02-21T15:36:16;15.91;45.91
63976;DHT22;50167;47.958;21.780;2023-02-21T15:41:35;15.64;46.76
63976;DHT22;50167;47.958;21.780;2023-02-21T15:44:21;15.49;46.97
63976;DHT22;50167;47.958;21.780;2023-02-21T15:46:59;15.36;47.59
63976;DHT22;50167;47.958;21.780;2023-02-21T15:49:41;15.20;47.70
63976;DHT22;50167;47.958;21.780;2023-02-21T15:52:35;15.06;48.50
63976;DHT22;50167;47.958;21.780;2023-02-21T16:00:42;14.78;48.60
63976;DHT22;50167;47.958;21.780;2023-02-21T16:03:38;14.67;48.81
63976;DHT22;50167;47.958;21.780;2023-02-21T16:06:24;14.53;49.14
63976;DHT22;50167;47.958;21.780;2023-02-21T16:09:16;14.43;49.49
63976;DHT22;50167;47.958;21.780;2023-02-21T16:18:54;14.05;50.53
63976;DHT22;50167;47.958;21.780;2023-02-21T16:21:25;13.99;50.82
63976;DHT22;50167;47.958;21.780;2023-02-21T16:23:52;13.89;50.74
63976;DHT22;50167;47.958;21.780;2023-02-21T16:26:25;13.78;51.27
63976;DHT22;50167;47.958;21.780;2023-02-21T16:28:54;13.68;51.54
63976;DHT22;50167;47.958;21.780;2023-02-21T16:31:29;13.60;51.92
63976;DHT22;50167;47.958;21.780;2023-02-21T16:33:56;13.52;52.18
63976;DHT22;50167;47.958;21.780;2023-02-21T16:36:29;13.44;52.39
63976;DHT22;50167;47.958;21.780;2023-02-21T16:38:57;13.33;52.61
63976;DHT22;50167;47.958;21.780;2023-02-21T16:41:24;13.24;53.12
63976;DHT22;50167;47.958;21.780;2023-02-21T16:43:50;13.16;53.13
63976;DHT22;50167;47.958;21.780;2023-02-21T16:46:24;13.07;53.46
63976;DHT22;50167;47.958;21.780;2023-02-21T16:48:54;12.99;53.48
63976;DHT22;50167;47.958;21.780;2023-02-21T16:51:23;12.93;53.49
63976;DHT22;50167;47.958;21.780;2023-02-21T16:53:49;12.87;53.91
63976;DHT22;50167;47.958;21.780;2023-02-21T16:56:16;12.82;54.45
63976;DHT22;50167;47.958;21.780;2023-02-21T16:58:46;12.80;54.10
63976;DHT22;50167;47.958;21.780;2023-02-21T17:01:24;12.78;54.10
63976;DHT22;50167;47.958;21.780;2023-02-21T17:03:48;12.72;54.66
63976;DHT22;50167;47.958;21.780;2023-02-21T17:06:19;12.71;54.82
63976;DHT22;50167;47.958;21.780;2023-02-21T17:08:46;12.65;54.68
63976;DHT22;50167;47.958;21.780;2023-02-21T17:11:12;12.61;55.06
63976;DHT22;50167;47.958;21.780;2023-02-21T17:13:38;12.54;55.33
63976;DHT22;50167;47.958;21.780;2023-02-21T17:16:05;12.45;55.29
63976;DHT22;50167;47.958;21.780;2023-02-21T17:18:32;12.38;55.50
63976;DHT22;50167;47.958;21.780;2023-02-21T17:20:59;12.34;55.90
63976;DHT22;50167;47.958;21.780;2023-02-21T17:23:26;12.24;55.80
63976;DHT22;50167;47.958;21.780;2023-02-21T17:25:53;12.19;55.81
63976;DHT22;50167;47.958;21.780;2023-02-21T17:28:19;12.13;56.45
63976;DHT22;50167;47.958;21.780;2023-02-21T17:30:45;12.04;56.60
63976;DHT22;50167;47.958;21.780;2023-02-21T17:33:13;11.97;56.98
63976;DHT22;50167;47.958;21.780;2023-02-21T17:35:40;11.89;57.01
63976;DHT22;50167;47.958;21.780;2023-02-21T17:38:06;11.78;57.05
63976;DHT22;50167;47.958;21.780;2023-02-21T17:40:32;11.68;57.16
63976;DHT22;50167;47.958;21.780;2023-02-21T17:42:58;11.58;57.41
63976;DHT22;50167;47.958;21.780;2023-02-21T17:45:25;11.52;57.81
63976;DHT22;50167;47.958;21.780;2023-02-21T17:47:51;11.42;57.42
63976;DHT22;50167;47.958;21.780;2023-02-21T17:50:20;11.35;58.20
63976;DHT22;50167;47.958;21.780;2023-02-21T17:52:46;11.31;58.42
63976;DHT22;50167;47.958;21.780;2023-02-21T17:55:23;11.22;58.40
63976;DHT22;50167;47.958;21.780;2023-02-21T17:57:51;11.17;58.83
63976;DHT22;50167;47.958;21.780;2023-02-21T18:02:54;11.02;58.44
63976;DHT22;50167;47.958;21.780;2023-02-21T18:05:20;10.93;58.12
63976;DHT22;50167;47.958;21.780;2023-02-21T18:07:49;10.89;58.61
63976;DHT22;50167;47.958;21.780;2023-02-21T18:10:19;10.80;59.86
63976;DHT22;50167;47.958;21.780;2023-02-21T18:12:46;10.69;60.00
63976;DHT22;50167;47.958;21.780;2023-02-21T18:15:14;10.62;60.54
63976;DHT22;50167;47.958;21.780;2023-02-21T18:17:40;10.45;60.83
63976;DHT22;50167;47.958;21.780;2023-02-21T18:20:08;10.35;61.27
63976;DHT22;50167;47.958;21.780;2023-02-21T18:22:40;10.21;61.47
63976;DHT22;50167;47.958;21.780;2023-02-21T18:25:05;10.08;61.85
63976;DHT22;50167;47.958;21.780;2023-02-21T18:27:34;9.96;62.53
63976;DHT22;50167;47.958;21.780;2023-02-21T18:30:00;10.82;67.02
63976;DHT22;50167;47.958;21.780;2023-02-21T18:32:28;12.43;66.80
63976;DHT22;50167;47.958;21.780;2023-02-21T18:34:54;13.43;61.92
63976;DHT22;50167;47.958;21.780;2023-02-21T18:37:22;14.08;58.52
63976;DHT22;50167;47.958;21.780;2023-02-21T18:39:52;13.86;54.22
63976;DHT22;50167;47.958;21.780;2023-02-21T18:42:19;12.95;54.11
63976;DHT22;50167;47.958;21.780;2023-02-21T18:44:47;12.26;55.08
63976;DHT22;50167;47.958;21.780;2023-02-21T18:47:14;11.70;55.94
63976;DHT22;50167;47.958;21.780;2023-02-21T18:49:42;11.25;57.24
63976;DHT22;50167;47.958;21.780;2023-02-21T18:52:10;10.89;58.53
63976;DHT22;50167;47.958;21.780;2023-02-21T18:54:45;10.53;59.38
63976;DHT22;50167;47.958;21.780;2023-02-21T18:57:15;10.25;60.00
63976;DHT22;50167;47.958;21.780;2023-02-21T18:59:41;9.98;60.71